Comendador Gomes, Brazil
Current Conditions -  °F | °C
As of 4:00 AM on Saturday 25 Oct 2014 (Local Time) from SBUR Reporting Station
Light Rain Light Rain  
Wind Chill: 68°   Ceiling: 7000
Heat Index: 68°   Visibility: 6mi
Dew Point: 68°   Wind: 5mph
Humidity: 100%   Direction: 120°ESE
Pressure: 29.97"   Gusts: NA
Location:  19.7°S, 49.08°W
Report Text: SBUR 250600Z 12004KT 9999 -RA SCT045 BKN070 20/20 Q1015
Loading
Personal Weather Stations






























Interactive Weather Map
Tropical Storm Tracking
New forecast layout! Learn more

10-Day Weather Forecast

Advertisements
Track Severe Weather on mobile